sensor_id;sensor_type;location;lat;lon;timestamp;temperature;humidity
4505;DHT22;2265;48.794;9.520;2023-07-09T00:00:10;22.30;98.00
4505;DHT22;2265;48.794;9.520;2023-07-09T00:02:40;22.40;98.00
4505;DHT22;2265;48.794;9.520;2023-07-09T00:05:11;22.30;98.00
4505;DHT22;2265;48.794;9.520;2023-07-09T00:07:38;22.30;98.00
4505;DHT22;2265;48.794;9.520;2023-07-09T00:10:13;22.10;98.00
4505;DHT22;2265;48.794;9.520;2023-07-09T00:12:42;21.90;98.00
4505;DHT22;2265;48.794;9.520;2023-07-09T00:15:13;21.90;98.00
4505;DHT22;2265;48.794;9.520;2023-07-09T00:17:41;21.70;98.00
4505;DHT22;2265;48.794;9.520;2023-07-09T00:20:12;21.70;98.00
4505;DHT22;2265;48.794;9.520;2023-07-09T00:22:40;21.60;98.00
4505;DHT22;2265;48.794;9.520;2023-07-09T00:25:10;21.40;98.00
4505;DHT22;2265;48.794;9.520;2023-07-09T00:27:40;21.40;98.00
4505;DHT22;2265;48.794;9.520;2023-07-09T00:30:16;21.40;98.00
4505;DHT22;2265;48.794;9.520;2023-07-09T00:32:43;21.50;98.00
4505;DHT22;2265;48.794;9.520;2023-07-09T00:35:18;21.50;98.00
4505;DHT22;2265;48.794;9.520;2023-07-09T00:37:46;21.40;98.00
4505;DHT22;2265;48.794;9.520;2023-07-09T00:40:17;21.40;98.00
4505;DHT22;2265;48.794;9.520;2023-07-09T00:42:46;21.40;98.00
4505;DHT22;2265;48.794;9.520;2023-07-09T00:45:23;21.20;98.00
4505;DHT22;2265;48.794;9.520;2023-07-09T00:47:55;21.10;98.00
4505;DHT22;2265;48.794;9.520;2023-07-09T00:50:34;21.20;98.00
4505;DHT22;2265;48.794;9.520;2023-07-09T00:53:08;21.00;98.00
4505;DHT22;2265;48.794;9.520;2023-07-09T00:55:40;21.00;98.00
4505;DHT22;2265;48.794;9.520;2023-07-09T00:58:12;21.20;98.00
4505;DHT22;2265;48.794;9.520;2023-07-09T01:00:45;21.20;98.00
4505;DHT22;2265;48.794;9.520;2023-07-09T01:03:19;21.40;98.00
4505;DHT22;2265;48.794;9.520;2023-07-09T01:05:47;21.40;98.00
4505;DHT22;2265;48.794;9.520;2023-07-09T01:08:18;21.30;98.00
4505;DHT22;2265;48.794;9.520;2023-07-09T01:10:45;21.30;98.00
4505;DHT22;2265;48.794;9.520;2023-07-09T01:13:13;21.40;98.00
4505;DHT22;2265;48.794;9.520;2023-07-09T01:15:42;21.30;98.00
4505;DHT22;2265;48.794;9.520;2023-07-09T01:18:09;21.30;98.00
4505;DHT22;2265;48.794;9.520;2023-07-09T01:20:38;21.20;98.00
4505;DHT22;2265;48.794;9.520;2023-07-09T01:23:08;21.10;98.00
4505;DHT22;2265;48.794;9.520;2023-07-09T01:25:37;21.10;98.00
4505;DHT22;2265;48.794;9.520;2023-07-09T01:28:05;21.00;98.00
4505;DHT22;2265;48.794;9.520;2023-07-09T01:30:35;21.20;98.00
4505;DHT22;2265;48.794;9.520;2023-07-09T01:33:03;21.20;98.00
4505;DHT22;2265;48.794;9.520;2023-07-09T01:35:36;21.40;98.00
4505;DHT22;2265;48.794;9.520;2023-07-09T01:38:08;21.40;98.00
4505;DHT22;2265;48.794;9.520;2023-07-09T01:40:35;21.20;98.00
4505;DHT22;2265;48.794;9.520;2023-07-09T01:43:03;21.20;98.00
4505;DHT22;2265;48.794;9.520;2023-07-09T01:45:32;21.10;98.00
4505;DHT22;2265;48.794;9.520;2023-07-09T01:48:01;21.00;98.00
4505;DHT22;2265;48.794;9.520;2023-07-09T01:50:28;21.00;98.00
4505;DHT22;2265;48.794;9.520;2023-07-09T01:52:57;20.90;98.00
4505;DHT22;2265;48.794;9.520;2023-07-09T01:55:27;20.80;98.00
4505;DHT22;2265;48.794;9.520;2023-07-09T01:57:55;20.80;98.00
4505;DHT22;2265;48.794;9.520;2023-07-09T02:00:22;20.80;98.00
4505;DHT22;2265;48.794;9.520;2023-07-09T02:02:49;20.70;98.00
4505;DHT22;2265;48.794;9.520;2023-07-09T02:05:19;20.60;98.00
4505;DHT22;2265;48.794;9.520;2023-07-09T02:07:46;20.60;98.00
4505;DHT22;2265;48.794;9.520;2023-07-09T02:10:15;20.50;98.00
4505;DHT22;2265;48.794;9.520;2023-07-09T02:12:44;20.60;98.00
4505;DHT22;2265;48.794;9.520;2023-07-09T02:15:14;20.40;98.00
4505;DHT22;2265;48.794;9.520;2023-07-09T02:17:42;20.30;98.00
4505;DHT22;2265;48.794;9.520;2023-07-09T02:20:12;20.20;98.00
4505;DHT22;2265;48.794;9.520;2023-07-09T02:22:40;20.20;98.00
4505;DHT22;2265;48.794;9.520;2023-07-09T02:25:08;20.10;98.00
4505;DHT22;2265;48.794;9.520;2023-07-09T02:27:36;20.10;98.00
4505;DHT22;2265;48.794;9.520;2023-07-09T02:30:05;20.20;98.00
4505;DHT22;2265;48.794;9.520;2023-07-09T02:32:33;20.10;98.00
4505;DHT22;2265;48.794;9.520;2023-07-09T02:35:00;20.30;98.00
4505;DHT22;2265;48.794;9.520;2023-07-09T02:37:27;20.40;98.00
4505;DHT22;2265;48.794;9.520;2023-07-09T02:39:54;20.10;98.00
4505;DHT22;2265;48.794;9.520;2023-07-09T02:42:22;19.90;98.00
4505;DHT22;2265;48.794;9.520;2023-07-09T02:44:50;19.80;98.00
4505;DHT22;2265;48.794;9.520;2023-07-09T02:47:19;19.80;98.00
4505;DHT22;2265;48.794;9.520;2023-07-09T02:49:46;19.60;98.00
4505;DHT22;2265;48.794;9.520;2023-07-09T02:52:13;19.50;98.00
4505;DHT22;2265;48.794;9.520;2023-07-09T02:54:40;19.50;98.00
4505;DHT22;2265;48.794;9.520;2023-07-09T02:57:08;19.60;98.00
4505;DHT22;2265;48.794;9.520;2023-07-09T02:59:35;19.80;98.00
4505;DHT22;2265;48.794;9.520;2023-07-09T03:02:03;19.70;98.00
4505;DHT22;2265;48.794;9.520;2023-07-09T03:04:32;19.70;98.00
4505;DHT22;2265;48.794;9.520;2023-07-09T03:06:59;19.60;98.00
4505;DHT22;2265;48.794;9.520;2023-07-09T03:09:26;19.50;98.00
4505;DHT22;2265;48.794;9.520;2023-07-09T03:11:53;19.50;98.00
4505;DHT22;2265;48.794;9.520;2023-07-09T03:14:22;19.60;98.00
4505;DHT22;2265;48.794;9.520;2023-07-09T03:16:49;19.70;98.00
4505;DHT22;2265;48.794;9.520;2023-07-09T03:19:16;19.50;98.00
4505;DHT22;2265;48.794;9.520;2023-07-09T03:21:44;19.40;98.00
4505;DHT22;2265;48.794;9.520;2023-07-09T03:24:11;19.40;98.00
4505;DHT22;2265;48.794;9.520;2023-07-09T03:26:44;19.40;98.00
4505;DHT22;2265;48.794;9.520;2023-07-09T03:29:11;19.30;98.00
4505;DHT22;2265;48.794;9.520;2023-07-09T03:31:40;19.50;98.00
4505;DHT22;2265;48.794;9.520;2023-07-09T03:34:07;19.50;98.00
4505;DHT22;2265;48.794;9.520;2023-07-09T03:36:34;19.40;98.00
4505;DHT22;2265;48.794;9.520;2023-07-09T03:39:05;19.40;98.00
4505;DHT22;2265;48.794;9.520;2023-07-09T03:41:33;19.30;98.00
4505;DHT22;2265;48.794;9.520;2023-07-09T03:44:00;19.40;98.00
4505;DHT22;2265;48.794;9.520;2023-07-09T03:46:27;19.40;98.00
4505;DHT22;2265;48.794;9.520;2023-07-09T03:48:54;19.40;98.00
4505;DHT22;2265;48.794;9.520;2023-07-09T03:51:22;19.40;98.00
4505;DHT22;2265;48.794;9.520;2023-07-09T03:53:49;19.60;98.00
4505;DHT22;2265;48.794;9.520;2023-07-09T03:56:18;19.40;98.00
4505;DHT22;2265;48.794;9.520;2023-07-09T03:58:45;19.30;98.00
4505;DHT22;2265;48.794;9.520;2023-07-09T04:01:12;19.30;98.00
4505;DHT22;2265;48.794;9.520;2023-07-09T04:03:39;19.30;98.00
4505;DHT22;2265;48.794;9.520;2023-07-09T04:06:06;19.60;98.00
4505;DHT22;2265;48.794;9.520;2023-07-09T04:08:33;19.50;98.00
4505;DHT22;2265;48.794;9.520;2023-07-09T04:11:02;19.40;98.00
4505;DHT22;2265;48.794;9.520;2023-07-09T04:13:30;19.20;98.00
4505;DHT22;2265;48.794;9.520;2023-07-09T04:15:59;19.40;98.00
4505;DHT22;2265;48.794;9.520;2023-07-09T04:18:26;19.60;98.00
4505;DHT22;2265;48.794;9.520;2023-07-09T04:20:53;19.60;98.00
4505;DHT22;2265;48.794;9.520;2023-07-09T04:23:21;19.50;98.00
4505;DHT22;2265;48.794;9.520;2023-07-09T04:25:48;19.30;98.00
4505;DHT22;2265;48.794;9.520;2023-07-09T04:28:15;19.20;98.00
4505;DHT22;2265;48.794;9.520;2023-07-09T04:30:48;19.10;98.00
4505;DHT22;2265;48.794;9.520;2023-07-09T04:33:16;19.10;98.00
4505;DHT22;2265;48.794;9.520;2023-07-09T04:35:44;19.00;98.00
4505;DHT22;2265;48.794;9.520;2023-07-09T04:38:12;19.00;98.00
4505;DHT22;2265;48.794;9.520;2023-07-09T04:40:39;19.00;98.00
4505;DHT22;2265;48.794;9.520;2023-07-09T04:43:06;19.10;98.00
4505;DHT22;2265;48.794;9.520;2023-07-09T04:45:33;19.30;98.00
4505;DHT22;2265;48.794;9.520;2023-07-09T04:48:01;19.50;98.00
4505;DHT22;2265;48.794;9.520;2023-07-09T04:50:28;19.50;98.00
4505;DHT22;2265;48.794;9.520;2023-07-09T04:52:55;19.70;98.00
4505;DHT22;2265;48.794;9.520;2023-07-09T04:55:23;19.70;98.00
4505;DHT22;2265;48.794;9.520;2023-07-09T04:57:52;19.80;98.00
4505;DHT22;2265;48.794;9.520;2023-07-09T05:00:20;19.90;98.00
4505;DHT22;2265;48.794;9.520;2023-07-09T05:02:47;20.00;98.00
4505;DHT22;2265;48.794;9.520;2023-07-09T05:05:15;20.00;98.00
4505;DHT22;2265;48.794;9.520;2023-07-09T05:07:42;20.10;98.00
4505;DHT22;2265;48.794;9.520;2023-07-09T05:10:10;20.40;98.00
4505;DHT22;2265;48.794;9.520;2023-07-09T05:12:47;20.40;98.00
4505;DHT22;2265;48.794;9.520;2023-07-09T05:15:16;20.50;98.00
4505;DHT22;2265;48.794;9.520;2023-07-09T05:17:44;20.50;98.00
4505;DHT22;2265;48.794;9.520;2023-07-09T05:20:12;20.50;98.00
4505;DHT22;2265;48.794;9.520;2023-07-09T05:22:40;20.60;98.00
4505;DHT22;2265;48.794;9.520;2023-07-09T05:25:08;20.60;98.00
4505;DHT22;2265;48.794;9.520;2023-07-09T05:27:35;20.60;98.00
4505;DHT22;2265;48.794;9.520;2023-07-09T05:30:02;20.70;98.00
4505;DHT22;2265;48.794;9.520;2023-07-09T05:32:30;20.90;98.00
4505;DHT22;2265;48.794;9.520;2023-07-09T05:34:58;21.00;98.00
4505;DHT22;2265;48.794;9.520;2023-07-09T05:37:25;21.00;98.00
4505;DHT22;2265;48.794;9.520;2023-07-09T05:39:54;21.10;98.00
4505;DHT22;2265;48.794;9.520;2023-07-09T05:42:23;21.20;98.00
4505;DHT22;2265;48.794;9.520;2023-07-09T05:44:51;21.30;98.00
4505;DHT22;2265;48.794;9.520;2023-07-09T05:47:19;21.40;98.00
4505;DHT22;2265;48.794;9.520;2023-07-09T05:49:46;21.50;98.00
4505;DHT22;2265;48.794;9.520;2023-07-09T05:52:15;21.60;98.00
4505;DHT22;2265;48.794;9.520;2023-07-09T05:54:42;21.70;98.00
4505;DHT22;2265;48.794;9.520;2023-07-09T05:57:11;21.60;98.00
4505;DHT22;2265;48.794;9.520;2023-07-09T05:59:39;21.80;98.00
4505;DHT22;2265;48.794;9.520;2023-07-09T06:02:09;22.00;98.00
4505;DHT22;2265;48.794;9.520;2023-07-09T06:04:37;22.00;98.00
4505;DHT22;2265;48.794;9.520;2023-07-09T06:07:05;22.20;98.00
4505;DHT22;2265;48.794;9.520;2023-07-09T06:09:33;22.10;98.00
4505;DHT22;2265;48.794;9.520;2023-07-09T06:12:00;22.20;98.00
4505;DHT22;2265;48.794;9.520;2023-07-09T06:14:29;22.30;98.00
4505;DHT22;2265;48.794;9.520;2023-07-09T06:16:56;22.30;98.00
4505;DHT22;2265;48.794;9.520;2023-07-09T06:19:24;22.50;98.00
4505;DHT22;2265;48.794;9.520;2023-07-09T06:21:51;22.60;98.00
4505;DHT22;2265;48.794;9.520;2023-07-09T06:24:18;22.60;98.00
4505;DHT22;2265;48.794;9.520;2023-07-09T06:26:45;22.70;98.00
4505;DHT22;2265;48.794;9.520;2023-07-09T06:29:12;22.80;98.00
4505;DHT22;2265;48.794;9.520;2023-07-09T06:31:41;22.90;98.00
4505;DHT22;2265;48.794;9.520;2023-07-09T06:34:09;23.00;98.00
4505;DHT22;2265;48.794;9.520;2023-07-09T06:36:36;23.10;98.00
4505;DHT22;2265;48.794;9.520;2023-07-09T06:39:03;23.30;98.00
4505;DHT22;2265;48.794;9.520;2023-07-09T06:41:31;23.60;98.00
4505;DHT22;2265;48.794;9.520;2023-07-09T06:44:05;23.70;98.00
4505;DHT22;2265;48.794;9.520;2023-07-09T06:46:32;23.90;98.00
4505;DHT22;2265;48.794;9.520;2023-07-09T06:49:01;24.00;98.00
4505;DHT22;2265;48.794;9.520;2023-07-09T06:51:31;24.10;98.00
4505;DHT22;2265;48.794;9.520;2023-07-09T06:54:01;24.30;98.00
4505;DHT22;2265;48.794;9.520;2023-07-09T06:56:28;24.50;98.00
4505;DHT22;2265;48.794;9.520;2023-07-09T06:58:55;24.70;98.00
4505;DHT22;2265;48.794;9.520;2023-07-09T07:01:22;25.00;98.00
4505;DHT22;2265;48.794;9.520;2023-07-09T07:03:49;25.10;98.00
4505;DHT22;2265;48.794;9.520;2023-07-09T07:06:18;25.20;98.00
4505;DHT22;2265;48.794;9.520;2023-07-09T07:08:45;25.30;98.00
4505;DHT22;2265;48.794;9.520;2023-07-09T07:11:12;25.50;98.00
4505;DHT22;2265;48.794;9.520;2023-07-09T07:13:40;25.60;98.00
4505;DHT22;2265;48.794;9.520;2023-07-09T07:16:10;25.70;98.00
4505;DHT22;2265;48.794;9.520;2023-07-09T07:18:37;25.90;98.00
4505;DHT22;2265;48.794;9.520;2023-07-09T07:21:06;25.80;98.00
4505;DHT22;2265;48.794;9.520;2023-07-09T07:23:34;25.90;98.00
4505;DHT22;2265;48.794;9.520;2023-07-09T07:26:02;26.10;97.90
4505;DHT22;2265;48.794;9.520;2023-07-09T07:28:29;26.20;98.00
4505;DHT22;2265;48.794;9.520;2023-07-09T07:31:00;26.20;98.00
4505;DHT22;2265;48.794;9.520;2023-07-09T07:33:27;26.30;97.90
4505;DHT22;2265;48.794;9.520;2023-07-09T07:35:54;26.50;97.50
4505;DHT22;2265;48.794;9.520;2023-07-09T07:38:21;26.60;96.80
4505;DHT22;2265;48.794;9.520;2023-07-09T07:40:50;26.70;97.00
4505;DHT22;2265;48.794;9.520;2023-07-09T07:43:19;26.80;96.60
4505;DHT22;2265;48.794;9.520;2023-07-09T07:45:47;26.80;96.20
4505;DHT22;2265;48.794;9.520;2023-07-09T07:48:15;26.90;96.20
4505;DHT22;2265;48.794;9.520;2023-07-09T07:50:42;27.10;95.80
4505;DHT22;2265;48.794;9.520;2023-07-09T07:53:11;27.10;94.50
4505;DHT22;2265;48.794;9.520;2023-07-09T07:55:39;27.20;93.80
4505;DHT22;2265;48.794;9.520;2023-07-09T07:58:09;27.30;93.60
4505;DHT22;2265;48.794;9.520;2023-07-09T08:00:36;27.30;93.80
4505;DHT22;2265;48.794;9.520;2023-07-09T08:03:04;27.50;93.00
4505;DHT22;2265;48.794;9.520;2023-07-09T08:05:31;27.60;92.90
4505;DHT22;2265;48.794;9.520;2023-07-09T08:07:58;27.70;92.40
4505;DHT22;2265;48.794;9.520;2023-07-09T08:10:25;27.70;91.90
4505;DHT22;2265;48.794;9.520;2023-07-09T08:12:52;27.90;91.50
4505;DHT22;2265;48.794;9.520;2023-07-09T08:15:24;28.00;91.80
4505;DHT22;2265;48.794;9.520;2023-07-09T08:17:51;28.20;91.20
4505;DHT22;2265;48.794;9.520;2023-07-09T08:20:19;28.30;91.00
4505;DHT22;2265;48.794;9.520;2023-07-09T08:22:46;28.50;91.10
4505;DHT22;2265;48.794;9.520;2023-07-09T08:25:13;28.60;90.50
4505;DHT22;2265;48.794;9.520;2023-07-09T08:27:40;28.80;90.70
4505;DHT22;2265;48.794;9.520;2023-07-09T08:30:08;29.00;89.30
4505;DHT22;2265;48.794;9.520;2023-07-09T08:32:36;29.20;88.70
4505;DHT22;2265;48.794;9.520;2023-07-09T08:35:04;29.30;88.40
4505;DHT22;2265;48.794;9.520;2023-07-09T08:37:31;29.50;88.20
4505;DHT22;2265;48.794;9.520;2023-07-09T08:39:58;29.50;87.70
4505;DHT22;2265;48.794;9.520;2023-07-09T08:42:29;29.60;87.40
4505;DHT22;2265;48.794;9.520;2023-07-09T08:45:09;29.50;87.40
4505;DHT22;2265;48.794;9.520;2023-07-09T08:47:45;29.60;86.80
4505;DHT22;2265;48.794;9.520;2023-07-09T08:50:16;29.70;87.10
4505;DHT22;2265;48.794;9.520;2023-07-09T08:52:47;29.90;86.80
4505;DHT22;2265;48.794;9.520;2023-07-09T08:55:17;30.00;86.60
4505;DHT22;2265;48.794;9.520;2023-07-09T08:57:47;30.10;85.00
4505;DHT22;2265;48.794;9.520;2023-07-09T09:00:20;30.30;85.60
4505;DHT22;2265;48.794;9.520;2023-07-09T09:02:54;30.50;84.10
4505;DHT22;2265;48.794;9.520;2023-07-09T09:05:24;30.50;83.70
4505;DHT22;2265;48.794;9.520;2023-07-09T09:07:57;30.70;84.40
4505;DHT22;2265;48.794;9.520;2023-07-09T09:10:32;30.80;83.70
4505;DHT22;2265;48.794;9.520;2023-07-09T09:13:05;31.00;83.50
4505;DHT22;2265;48.794;9.520;2023-07-09T09:15:37;31.10;83.00
4505;DHT22;2265;48.794;9.520;2023-07-09T09:18:20;31.20;82.40
4505;DHT22;2265;48.794;9.520;2023-07-09T09:20:53;31.30;80.70
4505;DHT22;2265;48.794;9.520;2023-07-09T09:23:22;31.40;81.40
4505;DHT22;2265;48.794;9.520;2023-07-09T09:25:53;31.50;81.10
4505;DHT22;2265;48.794;9.520;2023-07-09T09:28:22;31.80;80.40
4505;DHT22;2265;48.794;9.520;2023-07-09T09:30:51;32.00;79.60
4505;DHT22;2265;48.794;9.520;2023-07-09T09:33:19;32.30;79.00
4505;DHT22;2265;48.794;9.520;2023-07-09T09:36:01;32.50;78.00
4505;DHT22;2265;48.794;9.520;2023-07-09T09:38:39;32.60;78.40
4505;DHT22;2265;48.794;9.520;2023-07-09T09:41:12;32.90;76.80
4505;DHT22;2265;48.794;9.520;2023-07-09T09:43:42;33.00;75.70
4505;DHT22;2265;48.794;9.520;2023-07-09T09:46:12;33.00;75.60
4505;DHT22;2265;48.794;9.520;2023-07-09T09:48:45;33.10;76.00
4505;DHT22;2265;48.794;9.520;2023-07-09T09:53:41;33.40;75.20
4505;DHT22;2265;48.794;9.520;2023-07-09T10:01:14;33.60;74.30
4505;DHT22;2265;48.794;9.520;2023-07-09T10:03:41;33.80;73.20
4505;DHT22;2265;48.794;9.520;2023-07-09T10:06:16;34.00;73.60
4505;DHT22;2265;48.794;9.520;2023-07-09T10:08:53;34.20;72.40
4505;DHT22;2265;48.794;9.520;2023-07-09T10:11:28;34.40;71.20
4505;DHT22;2265;48.794;9.520;2023-07-09T10:16:46;34.50;67.20
4505;DHT22;2265;48.794;9.520;2023-07-09T10:19:20;34.60;67.00
4505;DHT22;2265;48.794;9.520;2023-07-09T10:21:58;34.70;66.80
4505;DHT22;2265;48.794;9.520;2023-07-09T10:24:39;34.80;65.10
4505;DHT22;2265;48.794;9.520;2023-07-09T10:27:13;34.90;66.10
4505;DHT22;2265;48.794;9.520;2023-07-09T10:29:56;35.00;65.80
4505;DHT22;2265;48.794;9.520;2023-07-09T10:32:37;35.00;64.80
4505;DHT22;2265;48.794;9.520;2023-07-09T10:35:10;35.00;64.50
4505;DHT22;2265;48.794;9.520;2023-07-09T10:38:07;35.20;64.90
4505;DHT22;2265;48.794;9.520;2023-07-09T10:40:39;35.40;64.70
4505;DHT22;2265;48.794;9.520;2023-07-09T10:43:13;35.60;64.50
4505;DHT22;2265;48.794;9.520;2023-07-09T10:45:44;35.80;63.50
4505;DHT22;2265;48.794;9.520;2023-07-09T10:48:16;35.90;61.90
4505;DHT22;2265;48.794;9.520;2023-07-09T10:50:47;36.00;60.10
4505;DHT22;2265;48.794;9.520;2023-07-09T10:53:28;35.90;59.60
4505;DHT22;2265;48.794;9.520;2023-07-09T10:56:00;35.80;60.20
4505;DHT22;2265;48.794;9.520;2023-07-09T10:58:35;35.80;61.80
4505;DHT22;2265;48.794;9.520;2023-07-09T11:01:02;36.10;62.10
4505;DHT22;2265;48.794;9.520;2023-07-09T11:03:37;36.40;61.70
4505;DHT22;2265;48.794;9.520;2023-07-09T11:06:17;36.50;61.00
4505;DHT22;2265;48.794;9.520;2023-07-09T11:08:50;36.50;60.80
4505;DHT22;2265;48.794;9.520;2023-07-09T11:11:28;36.60;60.10
4505;DHT22;2265;48.794;9.520;2023-07-09T11:13:59;36.80;60.70
4505;DHT22;2265;48.794;9.520;2023-07-09T11:16:32;36.90;60.70
4505;DHT22;2265;48.794;9.520;2023-07-09T11:19:01;37.10;60.20
4505;DHT22;2265;48.794;9.520;2023-07-09T11:21:29;37.30;60.00
4505;DHT22;2265;48.794;9.520;2023-07-09T11:24:24;37.60;59.70
4505;DHT22;2265;48.794;9.520;2023-07-09T11:26:52;37.80;60.30
4505;DHT22;2265;48.794;9.520;2023-07-09T11:29:23;38.10;58.10
4505;DHT22;2265;48.794;9.520;2023-07-09T11:34:18;38.10;57.70
4505;DHT22;2265;48.794;9.520;2023-07-09T11:36:55;38.30;57.30
4505;DHT22;2265;48.794;9.520;2023-07-09T11:39:42;38.60;57.60
4505;DHT22;2265;48.794;9.520;2023-07-09T11:42:24;38.70;57.20
4505;DHT22;2265;48.794;9.520;2023-07-09T11:44:56;38.50;57.30
4505;DHT22;2265;48.794;9.520;2023-07-09T11:47:27;38.60;57.40
4505;DHT22;2265;48.794;9.520;2023-07-09T11:49:59;38.60;56.50
4505;DHT22;2265;48.794;9.520;2023-07-09T11:52:28;38.50;57.50
4505;DHT22;2265;48.794;9.520;2023-07-09T11:55:02;38.70;56.20
4505;DHT22;2265;48.794;9.520;2023-07-09T11:57:29;38.70;56.80
4505;DHT22;2265;48.794;9.520;2023-07-09T11:59:59;38.70;57.80
4505;DHT22;2265;48.794;9.520;2023-07-09T12:02:32;38.80;56.00
4505;DHT22;2265;48.794;9.520;2023-07-09T12:05:02;38.80;57.20
4505;DHT22;2265;48.794;9.520;2023-07-09T12:07:31;38.90;57.00
4505;DHT22;2265;48.794;9.520;2023-07-09T12:10:03;38.80;56.10
4505;DHT22;2265;48.794;9.520;2023-07-09T12:12:31;38.90;57.50
4505;DHT22;2265;48.794;9.520;2023-07-09T12:14:58;38.90;55.30
4505;DHT22;2265;48.794;9.520;2023-07-09T12:17:27;38.80;56.30
4505;DHT22;2265;48.794;9.520;2023-07-09T12:19:56;39.00;54.70
4505;DHT22;2265;48.794;9.520;2023-07-09T12:22:23;39.10;54.60
4505;DHT22;2265;48.794;9.520;2023-07-09T12:24:50;39.00;53.80
4505;DHT22;2265;48.794;9.520;2023-07-09T12:27:26;38.70;53.80
4505;DHT22;2265;48.794;9.520;2023-07-09T12:29:56;38.50;54.90
4505;DHT22;2265;48.794;9.520;2023-07-09T12:32:24;38.70;54.30
4505;DHT22;2265;48.794;9.520;2023-07-09T12:34:54;38.90;52.80
4505;DHT22;2265;48.794;9.520;2023-07-09T12:37:22;39.10;52.00
4505;DHT22;2265;48.794;9.520;2023-07-09T12:39:51;39.20;50.30
4505;DHT22;2265;48.794;9.520;2023-07-09T12:42:21;39.30;50.90
4505;DHT22;2265;48.794;9.520;2023-07-09T12:44:53;39.30;50.20
4505;DHT22;2265;48.794;9.520;2023-07-09T12:47:20;39.30;52.80
4505;DHT22;2265;48.794;9.520;2023-07-09T12:49:50;39.60;53.10
4505;DHT22;2265;48.794;9.520;2023-07-09T12:52:20;39.90;53.20
4505;DHT22;2265;48.794;9.520;2023-07-09T12:54:56;40.10;51.90
4505;DHT22;2265;48.794;9.520;2023-07-09T12:57:24;40.20;52.00
4505;DHT22;2265;48.794;9.520;2023-07-09T12:59:54;40.10;51.90
4505;DHT22;2265;48.794;9.520;2023-07-09T13:02:24;39.90;51.70
4505;DHT22;2265;48.794;9.520;2023-07-09T13:04:59;39.80;53.00
4505;DHT22;2265;48.794;9.520;2023-07-09T13:07:33;39.70;53.50
4505;DHT22;2265;48.794;9.520;2023-07-09T13:10:06;39.90;53.40
4505;DHT22;2265;48.794;9.520;2023-07-09T13:12:44;40.00;53.60
4505;DHT22;2265;48.794;9.520;2023-07-09T13:15:40;40.20;53.80
4505;DHT22;2265;48.794;9.520;2023-07-09T13:18:12;40.70;52.40
4505;DHT22;2265;48.794;9.520;2023-07-09T13:20:41;41.10;51.00
4505;DHT22;2265;48.794;9.520;2023-07-09T13:23:10;41.10;49.90
4505;DHT22;2265;48.794;9.520;2023-07-09T13:25:38;40.90;50.60
4505;DHT22;2265;48.794;9.520;2023-07-09T13:28:11;41.00;49.30
4505;DHT22;2265;48.794;9.520;2023-07-09T13:30:43;40.90;50.30
4505;DHT22;2265;48.794;9.520;2023-07-09T13:33:10;41.00;49.90
4505;DHT22;2265;48.794;9.520;2023-07-09T13:35:40;40.80;50.20
4505;DHT22;2265;48.794;9.520;2023-07-09T13:38:14;40.30;49.40
4505;DHT22;2265;48.794;9.520;2023-07-09T13:40:43;39.90;51.90
4505;DHT22;2265;48.794;9.520;2023-07-09T13:43:13;39.70;52.30
4505;DHT22;2265;48.794;9.520;2023-07-09T13:45:41;39.70;52.60
4505;DHT22;2265;48.794;9.520;2023-07-09T13:48:17;39.70;52.40
4505;DHT22;2265;48.794;9.520;2023-07-09T13:50:49;39.70;52.00
4505;DHT22;2265;48.794;9.520;2023-07-09T13:53:19;39.90;51.20
4505;DHT22;2265;48.794;9.520;2023-07-09T13:55:48;40.10;51.40
4505;DHT22;2265;48.794;9.520;2023-07-09T13:58:17;40.20;51.10
4505;DHT22;2265;48.794;9.520;2023-07-09T14:00:47;40.40;50.90
4505;DHT22;2265;48.794;9.520;2023-07-09T14:03:17;40.50;51.80
4505;DHT22;2265;48.794;9.520;2023-07-09T14:05:45;40.50;51.30
4505;DHT22;2265;48.794;9.520;2023-07-09T14:08:12;40.60;51.10
4505;DHT22;2265;48.794;9.520;2023-07-09T14:10:39;40.70;51.70
4505;DHT22;2265;48.794;9.520;2023-07-09T14:13:09;40.80;52.40
4505;DHT22;2265;48.794;9.520;2023-07-09T14:15:39;40.90;51.70
4505;DHT22;2265;48.794;9.520;2023-07-09T14:18:12;40.90;51.60
4505;DHT22;2265;48.794;9.520;2023-07-09T14:20:40;40.60;51.00
4505;DHT22;2265;48.794;9.520;2023-07-09T14:23:12;40.40;51.40
4505;DHT22;2265;48.794;9.520;2023-07-09T14:25:41;40.00;51.90
4505;DHT22;2265;48.794;9.520;2023-07-09T14:28:11;39.60;52.60
4505;DHT22;2265;48.794;9.520;2023-07-09T14:30:38;39.50;53.90
4505;DHT22;2265;48.794;9.520;2023-07-09T14:33:13;39.80;52.60
4505;DHT22;2265;48.794;9.520;2023-07-09T14:35:40;40.00;53.00
4505;DHT22;2265;48.794;9.520;2023-07-09T14:40:45;40.40;52.10
4505;DHT22;2265;48.794;9.520;2023-07-09T14:43:13;40.40;50.90
4505;DHT22;2265;48.794;9.520;2023-07-09T14:45:41;40.50;50.70
4505;DHT22;2265;48.794;9.520;2023-07-09T14:48:14;40.30;50.30
4505;DHT22;2265;48.794;9.520;2023-07-09T14:50:41;40.10;51.00
4505;DHT22;2265;48.794;9.520;2023-07-09T14:53:17;40.00;51.70
4505;DHT22;2265;48.794;9.520;2023-07-09T14:55:49;40.00;52.20
4505;DHT22;2265;48.794;9.520;2023-07-09T14:58:18;39.90;51.50
4505;DHT22;2265;48.794;9.520;2023-07-09T15:00:46;39.80;52.40
4505;DHT22;2265;48.794;9.520;2023-07-09T15:03:19;39.70;53.10
4505;DHT22;2265;48.794;9.520;2023-07-09T15:05:47;39.70;53.30
4505;DHT22;2265;48.794;9.520;2023-07-09T15:08:16;39.70;54.10
4505;DHT22;2265;48.794;9.520;2023-07-09T15:10:45;39.50;54.50
4505;DHT22;2265;48.794;9.520;2023-07-09T15:13:18;39.20;55.10
4505;DHT22;2265;48.794;9.520;2023-07-09T15:15:45;39.10;55.20
4505;DHT22;2265;48.794;9.520;2023-07-09T15:18:14;39.00;55.30
4505;DHT22;2265;48.794;9.520;2023-07-09T15:20:49;38.80;55.40
4505;DHT22;2265;48.794;9.520;2023-07-09T15:23:17;38.50;56.50
4505;DHT22;2265;48.794;9.520;2023-07-09T15:25:44;38.30;56.50
4505;DHT22;2265;48.794;9.520;2023-07-09T15:28:12;38.40;56.30
4505;DHT22;2265;48.794;9.520;2023-07-09T15:30:39;38.50;56.50
4505;DHT22;2265;48.794;9.520;2023-07-09T15:33:12;38.60;55.80
4505;DHT22;2265;48.794;9.520;2023-07-09T15:35:39;38.60;55.20
4505;DHT22;2265;48.794;9.520;2023-07-09T15:38:23;38.40;56.10
4505;DHT22;2265;48.794;9.520;2023-07-09T15:40:51;38.40;55.90
4505;DHT22;2265;48.794;9.520;2023-07-09T15:43:18;38.40;55.40
4505;DHT22;2265;48.794;9.520;2023-07-09T15:45:47;38.30;55.80
4505;DHT22;2265;48.794;9.520;2023-07-09T15:48:20;38.30;55.90
4505;DHT22;2265;48.794;9.520;2023-07-09T15:50:50;38.20;55.60
4505;DHT22;2265;48.794;9.520;2023-07-09T15:53:26;38.00;56.90
4505;DHT22;2265;48.794;9.520;2023-07-09T15:55:58;37.70;58.00
4505;DHT22;2265;48.794;9.520;2023-07-09T15:58:28;37.50;58.70
4505;DHT22;2265;48.794;9.520;2023-07-09T16:00:56;37.30;57.20
4505;DHT22;2265;48.794;9.520;2023-07-09T16:03:23;37.20;58.00
4505;DHT22;2265;48.794;9.520;2023-07-09T16:05:50;37.10;58.20
4505;DHT22;2265;48.794;9.520;2023-07-09T16:08:19;37.10;58.80
4505;DHT22;2265;48.794;9.520;2023-07-09T16:10:46;37.10;57.00
4505;DHT22;2265;48.794;9.520;2023-07-09T16:13:18;37.10;57.50
4505;DHT22;2265;48.794;9.520;2023-07-09T16:15:46;37.20;58.40
4505;DHT22;2265;48.794;9.520;2023-07-09T16:18:13;37.30;58.30
4505;DHT22;2265;48.794;9.520;2023-07-09T16:20:41;37.50;57.30
4505;DHT22;2265;48.794;9.520;2023-07-09T16:23:14;37.70;56.30
4505;DHT22;2265;48.794;9.520;2023-07-09T16:25:43;38.00;56.40
4505;DHT22;2265;48.794;9.520;2023-07-09T16:28:19;38.10;54.80
4505;DHT22;2265;48.794;9.520;2023-07-09T16:30:47;38.10;55.80
4505;DHT22;2265;48.794;9.520;2023-07-09T16:33:16;38.10;55.20